Location Isle ofWight, ISLE OF WIGHT, UK

ob UISISLE1 180700Z AUTO 25003G04KT CLR 15/14 A3012 RMK SLPNO 

2018.06.18 0700 UTC
Wind from the WSW (245 degrees) at 3.7 MPH (3 KT) gusting to 5.1 MPH (4 KT)
Visibility    Mile(s)
Sky Conditions  clear
Temperature 58.9 F (15 C)
Dew Point 56.9 F (14 C)
Relative Humidity 93%
Pressure   30.124 in. Hg (1020 hPa)
Rain  0.00 in.
Daily Rain 0.000 in.

Station Name  Isle of Wight Weather
Longitude, Latitude  -1.27, 50.72
Elevation 45
Station URL http://www.isleofwightweather.co.uk
Software Type WeatherDisplay:10.37R